This is the latest recevied weather packets stored in our database for station/object DB0NU-15. If no packets are shown the sender has not sent any weather packets the latest 1 day(s).
| Time | Temp. | Humidity | Pressure | Rain* | Wind** | Luminosity | Snow |
|---|---|---|---|---|---|---|---|
| 1777974047 | 19.44° C | 69% | 1009.6 hPa | 0 mm | 1.34 m/s, 65° | - | - |
| 1777973443 | 18.89° C | 72% | 1009.6 hPa | 0 mm | 0.89 m/s, 20° | - | - |
| 1777972236 | 18.33° C | 75% | 1009.9 hPa | 0 mm | 0.89 m/s, 29° | - | - |
| 1777971633 | 17.22° C | 77% | 1010 hPa | 0 mm | 0.89 m/s, 23° | - | - |
| 1777971030 | 16.11° C | 81% | 1010.1 hPa | 0 mm | 0.89 m/s, 9° | - | - |
| 1777970426 | 16.11° C | 81% | 1010.1 hPa | 0 mm | 0.89 m/s, 1° | - | - |
| 1777969823 | 15.56° C | 81% | 1010.1 hPa | 0 mm | 0.89 m/s, 351° | - | - |
| 1777969219 | 15.56° C | 81% | 1010.2 hPa | 0 mm | 0.89 m/s, 356° | - | - |
| 1777968616 | 15.56° C | 83% | 1010.3 hPa | 0 mm | 0.45 m/s, 6° | - | - |
| 1777968073 | 14.44° C | 85% | 1010.4 hPa | 0 mm | 0.89 m/s, 326° | - | - |
| 1777966866 | 13.89° C | 86% | 1010.5 hPa | 0 mm | 0.89 m/s, 315° | - | - |
| 1777966263 | 14.44° C | 85% | 1010.4 hPa | 0 mm | 0 m/s | - | - |
| 1777965659 | 13.89° C | 87% | 1010.4 hPa | 0 mm | 0.45 m/s, 315° | - | - |
| 1777965056 | 13.33° C | 88% | 1010.4 hPa | 0 mm | 0.89 m/s, 315° | - | - |
| 1777963849 | 13.33° C | 89% | 1010.4 hPa | 0 mm | 0 m/s | - | - |
| 1777963245 | 12.78° C | 90% | 1010.4 hPa | 0 mm | 0.45 m/s, 315° | - | - |
| 1777962642 | 12.78° C | 90% | 1010.3 hPa | 0 mm | 0.45 m/s, 315° | - | - |
| 1777962039 | 12.78° C | 91% | 1010.2 hPa | 0 mm | 0 m/s | - | - |
| 1777961435 | 12.78° C | 91% | 1010.3 hPa | 0 mm | 0 m/s | - | - |
| 1777960832 | 13.33° C | 89% | 1010.3 hPa | 0 mm | 0.45 m/s, 315° | - | - |
| 1777960229 | 13.33° C | 86% | 1010.3 hPa | 0 mm | 0.45 m/s, 60° | - | - |
| 1777959625 | 13.33° C | 88% | 1010.1 hPa | 0 mm | 0 m/s | - | - |
| 1777959022 | 12.78° C | 90% | 1010.3 hPa | 0 mm | 0 m/s | - | - |
| 1777957875 | 12.78° C | 87% | 1010.1 hPa | 0 mm | 0.89 m/s, 67° | - | - |
| 1777957272 | 12.78° C | 87% | 1010 hPa | 0 mm | 0.45 m/s, 38° | - | - |
* Rain latest hour (hover to see other rain measurements)
** Current wind speed in m/s (hover to see current wind gust speed)